Time;durP1;ratioP1;P1;durP2;ratioP2;P2;SDS_P1;SDS_P2;PMS_P1;PMS_P2;Temp;Humidity;BMP_temperature;BMP_pressure;BME280_temperature;BME280_humidity;BME280_pressure;Samples;Min_cycle;Max_cycle;Signal;HPM_P1;HPM_P2
2023/03/31 00:01:40;;;;;;;12.02;4.18;;;11.10;99.90;;;;;;5069108;28;20017;-58
2023/03/31 00:04:07;;;;;;;7.50;2.50;;;11.10;99.90;;;;;;5069574;28;20012;-58
2023/03/31 00:06:36;;;;;;;11.77;2.58;;;11.10;99.90;;;;;;5068895;28;20064;-58
2023/03/31 00:09:07;;;;;;;15.57;4.75;;;11.00;99.90;;;;;;5069774;28;20452;-58
2023/03/31 00:11:33;;;;;;;18.05;3.88;;;11.10;99.90;;;;;;5068750;28;20028;-58
2023/03/31 00:13:58;;;;;;;12.52;3.30;;;11.00;99.90;;;;;;5083622;28;20028;-58
2023/03/31 00:16:24;;;;;;;14.20;3.28;;;11.00;99.90;;;;;;5068962;28;20021;-58
2023/03/31 00:18:51;;;;;;;13.57;2.88;;;11.00;99.90;;;;;;5082026;28;20059;-58
2023/03/31 00:21:24;;;;;;;14.75;3.08;;;11.00;99.90;;;;;;5069015;28;20082;-57
2023/03/31 00:23:52;;;;;;;11.50;2.35;;;11.10;99.90;;;;;;5069252;28;20099;-59
2023/03/31 00:26:18;;;;;;;11.20;2.45;;;11.00;99.90;;;;;;5067484;28;20021;-58
2023/03/31 00:28:43;;;;;;;8.48;2.78;;;11.10;99.90;;;;;;5069213;28;20039;-58
2023/03/31 00:31:09;;;;;;;10.40;2.95;;;11.10;99.90;;;;;;5082795;28;20017;-57
2023/03/31 00:33:35;;;;;;;8.20;1.98;;;11.10;99.90;;;;;;5069091;28;20105;-57
2023/03/31 00:36:00;;;;;;;11.07;2.63;;;11.10;99.90;;;;;;5068416;28;20075;-57
2023/03/31 00:38:28;;;;;;;10.65;3.47;;;11.10;99.90;;;;;;5071171;28;20009;-58
2023/03/31 00:40:54;;;;;;;10.63;2.53;;;11.10;99.90;;;;;;5072566;28;20021;-58
2023/03/31 00:43:29;;;;;;;10.65;2.55;;;11.10;99.90;;;;;;5054997;28;20024;-58
2023/03/31 00:46:03;;;;;;;8.95;2.10;;;11.00;99.90;;;;;;5068579;28;20507;-58
2023/03/31 00:48:28;;;;;;;7.38;1.65;;;11.00;99.90;;;;;;5074491;28;20032;-58
2023/03/31 00:50:56;;;;;;;9.30;2.28;;;11.00;99.90;;;;;;5073224;28;20032;-58
2023/03/31 00:53:27;;;;;;;7.22;1.73;;;10.90;99.90;;;;;;5071451;28;20395;-58
2023/03/31 00:55:56;;;;;;;10.27;2.45;;;10.90;99.90;;;;;;5072069;28;20076;-58
2023/03/31 00:58:27;;;;;;;12.35;2.10;;;10.80;99.90;;;;;;5072792;28;20028;-58
2023/03/31 01:00:55;;;;;;;11.15;2.47;;;10.80;99.90;;;;;;5072241;28;20536;-58
2023/03/31 01:03:24;;;;;;;6.72;1.70;;;10.80;99.90;;;;;;5083553;28;20358;-58
2023/03/31 01:05:54;;;;;;;6.22;1.38;;;10.70;99.90;;;;;;5072795;28;20031;-58
2023/03/31 01:08:24;;;;;;;7.57;2.00;;;10.70;99.90;;;;;;5069819;28;20020;-58
2023/03/31 01:10:56;;;;;;;9.07;2.38;;;10.70;99.90;;;;;;5072626;28;20161;-57
2023/03/31 01:13:23;;;;;;;7.00;1.58;;;10.70;99.90;;;;;;5070361;28;20512;-58
2023/03/31 01:15:49;;;;;;;12.90;2.30;;;10.70;99.90;;;;;;5071959;28;20370;-58
2023/03/31 01:18:19;;;;;;;8.60;2.22;;;10.70;99.90;;;;;;5071946;28;20023;-58
2023/03/31 01:21:06;;;;;;;6.63;2.00;;;10.70;99.90;;;;;;5072287;28;20021;-58
2023/03/31 01:23:55;;;;;;;12.02;4.00;;;10.70;99.90;;;;;;5068840;28;20021;-57
2023/03/31 01:26:51;;;;;;;8.48;2.20;;;10.70;99.90;;;;;;5071998;28;20507;-58
2023/03/31 01:29:26;;;;;;;11.40;1.95;;;10.70;99.90;;;;;;5068509;28;20032;-57
2023/03/31 01:32:10;;;;;;;11.52;2.22;;;10.60;99.90;;;;;;5071863;28;20510;-58
2023/03/31 01:35:04;;;;;;;8.30;2.03;;;10.60;99.90;;;;;;5071636;28;20028;-58
2023/03/31 01:37:38;;;;;;;8.93;1.95;;;10.60;99.90;;;;;;5068846;28;20016;-58
2023/03/31 01:40:42;;;;;;;10.57;2.35;;;10.60;99.90;;;;;;5068967;28;20052;-58
2023/03/31 01:43:16;;;;;;;7.20;2.60;;;10.60;99.90;;;;;;5053528;28;20111;-57
2023/03/31 01:46:05;;;;;;;10.80;2.00;;;10.60;99.90;;;;;;5073947;28;20051;-58
2023/03/31 01:48:52;;;;;;;9.43;1.88;;;10.60;99.90;;;;;;5069178;28;20024;-57
2023/03/31 01:51:44;;;;;;;7.85;1.95;;;10.60;99.90;;;;;;5071293;28;20025;-57
2023/03/31 01:54:27;;;;;;;9.43;1.73;;;10.60;99.90;;;;;;5082254;28;20020;-57
2023/03/31 01:57:05;;;;;;;10.57;2.00;;;10.60;99.90;;;;;;5071619;28;20484;-58
2023/03/31 01:59:41;;;;;;;12.57;2.15;;;10.60;99.90;;;;;;5070531;28;20487;-58
2023/03/31 02:02:14;;;;;;;9.35;2.25;;;10.60;99.90;;;;;;5073140;28;20024;-57
2023/03/31 02:04:46;;;;;;;11.52;2.83;;;10.60;99.90;;;;;;5071195;28;20063;-57
2023/03/31 02:07:16;;;;;;;6.32;1.55;;;10.60;99.90;;;;;;5070073;28;20020;-57
2023/03/31 02:09:46;;;;;;;8.60;1.80;;;10.60;99.90;;;;;;5083341;28;20377;-58
2023/03/31 02:12:13;;;;;;;10.07;1.73;;;10.60;99.90;;;;;;5053568;28;20057;-58
2023/03/31 02:14:44;;;;;;;11.50;2.17;;;10.60;99.90;;;;;;5083477;28;20421;-57
2023/03/31 02:17:16;;;;;;;9.45;2.13;;;10.70;99.90;;;;;;5071027;28;20017;-57
2023/03/31 02:19:44;;;;;;;8.40;1.60;;;10.70;99.90;;;;;;5071268;28;20028;-57
2023/03/31 02:22:11;;;;;;;11.30;1.90;;;10.70;99.90;;;;;;5071461;28;20016;-57
2023/03/31 02:24:38;;;;;;;14.27;2.10;;;10.70;99.90;;;;;;5070110;28;20024;-58
2023/03/31 02:27:32;;;;;;;8.15;1.70;;;10.70;99.90;;;;;;5071088;28;20024;-58
2023/03/31 02:29:58;;;;;;;8.65;1.95;;;10.80;99.90;;;;;;5068686;28;20317;-58
2023/03/31 02:32:28;;;;;;;13.98;1.70;;;10.80;99.90;;;;;;5068782;28;20073;-57
2023/03/31 02:34:55;;;;;;;10.27;2.20;;;10.80;99.90;;;;;;5070826;28;20035;-57
2023/03/31 02:37:21;;;;;;;10.35;2.35;;;10.80;99.90;;;;;;5071158;28;20551;-58
2023/03/31 02:39:49;;;;;;;14.77;4.45;;;10.80;99.90;;;;;;5070081;28;20508;-57
2023/03/31 02:42:15;;;;;;;11.95;2.00;;;10.80;99.90;;;;;;5070070;28;20016;-58
2023/03/31 02:44:41;;;;;;;10.23;1.42;;;10.80;99.90;;;;;;5070509;28;20107;-58
2023/03/31 02:47:10;;;;;;;6.72;2.00;;;10.80;99.90;;;;;;5070263;28;20062;-57
2023/03/31 02:49:40;;;;;;;8.85;1.52;;;10.80;99.90;;;;;;5070454;28;20036;-58
2023/03/31 02:52:20;;;;;;;8.32;1.45;;;10.80;99.90;;;;;;5070350;28;20025;-57
2023/03/31 02:54:49;;;;;;;8.45;2.22;;;10.80;99.90;;;;;;5069485;28;20063;-58
2023/03/31 02:57:18;;;;;;;10.90;1.65;;;10.80;99.90;;;;;;5070384;28;20027;-58
2023/03/31 02:59:49;;;;;;;6.15;1.27;;;10.80;99.90;;;;;;5070091;28;20024;-58
2023/03/31 03:02:36;;;;;;;7.07;1.48;;;10.80;99.90;;;;;;5069690;28;20096;-58
2023/03/31 03:05:19;;;;;;;9.75;1.63;;;10.80;99.90;;;;;;5070157;28;20077;-58
2023/03/31 03:07:59;;;;;;;8.68;1.40;;;10.80;99.90;;;;;;5083675;28;20027;-57
2023/03/31 03:10:52;;;;;;;8.55;1.55;;;10.80;99.90;;;;;;5069997;28;20096;-58
2023/03/31 03:13:26;;;;;;;9.73;2.25;;;10.80;99.90;;;;;;5069494;28;20510;-58
2023/03/31 03:15:59;;;;;;;7.78;1.52;;;10.80;99.90;;;;;;5070078;28;20395;-58
2023/03/31 03:18:25;;;;;;;6.07;1.33;;;10.80;99.90;;;;;;5066227;28;20154;-58
2023/03/31 03:20:51;;;;;;;5.47;1.65;;;10.70;99.90;;;;;;5069549;28;20103;-58
2023/03/31 03:23:17;;;;;;;9.95;1.55;;;10.70;99.90;;;;;;5067024;28;20076;-58
2023/03/31 03:25:43;;;;;;;9.77;2.25;;;10.80;99.90;;;;;;5070161;28;20031;-58
2023/03/31 03:28:09;;;;;;;6.45;1.45;;;10.80;99.90;;;;;;5069596;28;20024;-58
2023/03/31 03:30:35;;;;;;;10.30;2.10;;;10.70;99.90;;;;;;5083239;28;20419;-58
2023/03/31 03:33:02;;;;;;;6.93;1.48;;;10.70;99.90;;;;;;5069476;28;20031;-58
2023/03/31 03:35:27;;;;;;;7.95;1.73;;;10.80;99.90;;;;;;5069771;28;20048;-57
2023/03/31 03:37:53;;;;;;;10.82;2.50;;;10.80;99.90;;;;;;5070376;28;20422;-58
2023/03/31 03:40:19;;;;;;;6.38;1.90;;;10.70;99.90;;;;;;5083422;28;20044;-58
2023/03/31 03:42:44;;;;;;;8.43;1.60;;;10.70;99.90;;;;;;5069545;28;20025;-58
2023/03/31 03:45:10;;;;;;;7.70;1.73;;;10.80;99.90;;;;;;5069876;28;20070;-58
2023/03/31 03:47:35;;;;;;;9.90;2.20;;;10.80;99.90;;;;;;5066566;28;20021;-58
2023/03/31 03:50:02;;;;;;;10.23;2.80;;;10.80;99.90;;;;;;5069585;28;20461;-58
2023/03/31 03:52:28;;;;;;;12.60;2.60;;;10.80;99.90;;;;;;5069582;28;20028;-58
2023/03/31 03:54:54;;;;;;;12.30;2.67;;;10.70;99.90;;;;;;5081660;28;20105;-58
2023/03/31 03:57:20;;;;;;;15.00;2.53;;;10.60;99.90;;;;;;5066973;28;20020;-57
2023/03/31 03:59:45;;;;;;;14.30;3.08;;;10.60;99.90;;;;;;5069374;28;20028;-58
2023/03/31 04:02:11;;;;;;;15.07;3.67;;;10.60;99.90;;;;;;5069406;28;20032;-57
2023/03/31 04:04:36;;;;;;;12.48;2.45;;;10.60;99.90;;;;;;5067437;28;20025;-58
2023/03/31 04:07:02;;;;;;;14.30;2.63;;;10.50;99.90;;;;;;5069512;28;20032;-57
2023/03/31 04:09:28;;;;;;;12.85;2.75;;;10.50;99.90;;;;;;5066724;28;20025;-58
2023/03/31 04:11:53;;;;;;;16.27;3.35;;;10.60;99.90;;;;;;5069290;28;20539;-57
2023/03/31 04:14:19;;;;;;;13.88;2.85;;;10.50;99.90;;;;;;5073428;28;20111;-57
2023/03/31 04:16:45;;;;;;;13.13;2.38;;;10.50;99.90;;;;;;5073392;28;20072;-58
2023/03/31 04:19:12;;;;;;;15.10;2.92;;;10.50;99.90;;;;;;5086938;28;20009;-57
2023/03/31 04:21:44;;;;;;;13.85;2.10;;;10.50;99.90;;;;;;5070252;28;20029;-57
2023/03/31 04:24:14;;;;;;;9.88;2.45;;;10.50;99.90;;;;;;5072864;28;20016;-57
2023/03/31 04:26:44;;;;;;;11.25;1.83;;;10.50;99.90;;;;;;5072871;28;20476;-58
2023/03/31 04:29:19;;;;;;;14.75;2.63;;;10.50;99.90;;;;;;5072989;28;20021;-57
2023/03/31 04:31:45;;;;;;;12.52;2.28;;;10.50;99.90;;;;;;5073111;28;20115;-58
2023/03/31 04:34:14;;;;;;;8.02;1.80;;;10.40;99.90;;;;;;5081042;28;20150;-57
2023/03/31 04:36:45;;;;;;;18.40;3.22;;;10.40;99.90;;;;;;5073600;28;20020;-57
2023/03/31 04:39:12;;;;;;;11.15;2.22;;;10.40;99.90;;;;;;5072690;28;20027;-58
2023/03/31 04:41:37;;;;;;;12.05;2.95;;;10.40;99.90;;;;;;5069204;28;20029;-57
2023/03/31 04:44:03;;;;;;;13.73;2.60;;;10.50;99.90;;;;;;5066408;28;20040;-57
2023/03/31 04:46:29;;;;;;;10.65;2.67;;;10.40;99.90;;;;;;5069663;28;20020;-57
2023/03/31 04:48:55;;;;;;;16.27;2.35;;;10.40;99.90;;;;;;5081818;28;20082;-57
2023/03/31 04:51:21;;;;;;;14.60;2.45;;;10.40;99.90;;;;;;5072419;28;20013;-58
2023/03/31 04:53:47;;;;;;;14.27;2.80;;;10.40;99.90;;;;;;5077234;28;20511;-58
2023/03/31 04:56:12;;;;;;;11.43;2.00;;;10.40;99.90;;;;;;5072095;28;20484;-58
2023/03/31 04:58:38;;;;;;;11.35;2.65;;;10.40;99.90;;;;;;5072144;28;20039;-58
2023/03/31 05:01:06;;;;;;;17.10;2.92;;;10.40;99.90;;;;;;5072528;28;20034;-57
2023/03/31 05:03:32;;;;;;;15.98;3.15;;;10.40;99.90;;;;;;5072128;28;20027;-58
2023/03/31 05:05:58;;;;;;;10.60;2.05;;;10.40;99.90;;;;;;5072732;28;20032;-58
2023/03/31 05:08:25;;;;;;;12.60;3.03;;;10.30;99.90;;;;;;5072229;28;20032;-58
2023/03/31 05:10:51;;;;;;;11.38;1.73;;;10.30;99.90;;;;;;5072406;28;20036;-58
2023/03/31 05:13:17;;;;;;;11.23;2.00;;;10.30;99.90;;;;;;5072128;28;20024;-58
2023/03/31 05:15:44;;;;;;;13.52;2.22;;;10.30;99.90;;;;;;5072275;28;20028;-58
2023/03/31 05:18:10;;;;;;;8.43;1.50;;;10.30;99.90;;;;;;5072003;28;20099;-58
2023/03/31 05:20:36;;;;;;;11.10;2.03;;;10.30;99.90;;;;;;5072238;28;20124;-57
2023/03/31 05:23:01;;;;;;;13.65;2.03;;;10.30;99.90;;;;;;5071999;28;20025;-58
2023/03/31 05:25:31;;;;;;;8.68;1.88;;;10.20;99.90;;;;;;5072568;28;20020;-58
2023/03/31 05:27:58;;;;;;;8.85;2.15;;;10.20;99.90;;;;;;5072274;28;20078;-57
2023/03/31 05:30:25;;;;;;;15.50;2.40;;;10.20;99.90;;;;;;5071788;28;20016;-58
2023/03/31 05:32:50;;;;;;;7.95;2.15;;;10.20;99.90;;;;;;5069017;28;20017;-58
2023/03/31 05:35:16;;;;;;;10.20;2.25;;;10.20;99.90;;;;;;5063335;28;20025;-58
2023/03/31 05:37:42;;;;;;;12.52;2.35;;;10.30;99.90;;;;;;5071292;28;20064;-58
2023/03/31 05:40:09;;;;;;;13.00;1.95;;;10.30;99.90;;;;;;5063704;28;20025;-57
2023/03/31 05:42:35;;;;;;;11.80;1.80;;;10.30;99.90;;;;;;5063592;28;20019;-58
2023/03/31 05:45:01;;;;;;;9.68;1.88;;;10.30;99.90;;;;;;5073500;28;20033;-58
2023/03/31 05:47:26;;;;;;;11.27;1.80;;;10.30;99.90;;;;;;5063636;28;20059;-58
2023/03/31 05:49:52;;;;;;;9.63;2.00;;;10.30;99.90;;;;;;5065523;28;20112;-57
2023/03/31 05:52:18;;;;;;;9.13;1.70;;;10.30;99.90;;;;;;5061840;28;20021;-58
2023/03/31 05:54:43;;;;;;;9.07;1.77;;;10.30;99.90;;;;;;5071936;28;20031;-58
2023/03/31 05:57:09;;;;;;;9.55;1.52;;;10.30;99.90;;;;;;5058773;28;20025;-57
2023/03/31 05:59:35;;;;;;;11.48;2.30;;;10.30;99.90;;;;;;5067585;28;20016;-58
2023/03/31 06:02:01;;;;;;;10.35;1.65;;;10.40;99.90;;;;;;5071817;28;20503;-58
2023/03/31 06:04:27;;;;;;;9.43;2.10;;;10.40;99.90;;;;;;5053007;28;20009;-58
2023/03/31 06:06:54;;;;;;;9.80;1.98;;;10.40;99.90;;;;;;5054129;28;20036;-58
2023/03/31 06:09:20;;;;;;;9.20;1.35;;;10.50;99.90;;;;;;5072326;28;20044;-58
2023/03/31 06:11:46;;;;;;;6.68;1.00;;;10.50;99.90;;;;;;5070376;28;20465;-55
2023/03/31 06:14:11;;;;;;;7.40;1.05;;;10.60;99.90;;;;;;5076218;28;20048;-59
2023/03/31 06:16:38;;;;;;;4.70;0.90;;;10.60;99.90;;;;;;5071978;28;20480;-58
2023/03/31 06:19:03;;;;;;;5.88;1.05;;;10.60;99.90;;;;;;5066820;28;20035;-58
2023/03/31 06:21:29;;;;;;;5.03;1.27;;;10.60;99.90;;;;;;5067844;28;20025;-58
2023/03/31 06:23:57;;;;;;;5.82;1.10;;;10.60;99.90;;;;;;5069654;28;20059;-58
2023/03/31 06:26:22;;;;;;;5.32;0.80;;;10.70;99.90;;;;;;5068060;28;20024;-58
2023/03/31 06:28:48;;;;;;;6.88;0.90;;;10.70;99.90;;;;;;5064774;28;20038;-58
2023/03/31 06:31:17;;;;;;;2.42;0.60;;;10.70;99.90;;;;;;5070869;28;20495;-58
2023/03/31 06:33:43;;;;;;;5.07;1.27;;;10.70;99.90;;;;;;5069809;28;20024;-58
2023/03/31 06:36:10;;;;;;;4.55;0.90;;;10.70;99.90;;;;;;5060875;28;20371;-58
2023/03/31 06:38:37;;;;;;;6.43;0.90;;;10.70;99.90;;;;;;5076147;28;20479;-57
2023/03/31 06:41:03;;;;;;;6.50;1.23;;;10.70;99.90;;;;;;5059283;28;20109;-58
2023/03/31 06:43:29;;;;;;;3.55;0.77;;;10.70;99.90;;;;;;5072616;28;20048;-58
2023/03/31 06:45:55;;;;;;;5.40;1.27;;;10.60;99.90;;;;;;5070449;28;20388;-58
2023/03/31 06:48:22;;;;;;;5.07;0.82;;;10.60;99.90;;;;;;5070647;28;20103;-58
2023/03/31 06:50:47;;;;;;;11.15;1.90;;;10.60;99.90;;;;;;5069706;28;20025;-57
2023/03/31 06:53:13;;;;;;;4.45;0.80;;;10.50;99.90;;;;;;5071184;28;20042;-58
2023/03/31 06:55:38;;;;;;;3.45;0.80;;;10.50;99.90;;;;;;5068347;28;20044;-58
2023/03/31 06:58:04;;;;;;;3.78;0.85;;;10.50;99.90;;;;;;5070829;28;20029;-58
2023/03/31 07:00:31;;;;;;;5.63;1.55;;;10.40;99.90;;;;;;5070889;28;20017;-57
2023/03/31 07:02:57;;;;;;;8.45;1.85;;;10.40;99.90;;;;;;5071406;28;20383;-57
2023/03/31 07:05:27;;;;;;;5.22;1.30;;;10.40;99.90;;;;;;5071068;28;20583;-57
2023/03/31 07:07:54;;;;;;;7.18;1.05;;;10.40;99.90;;;;;;5071168;28;20035;-57
2023/03/31 07:10:20;;;;;;;7.00;1.42;;;10.40;99.90;;;;;;5059436;28;20098;-57
2023/03/31 07:12:45;;;;;;;7.65;1.10;;;10.40;99.90;;;;;;5070696;28;20063;-57
2023/03/31 07:15:11;;;;;;;3.88;0.90;;;10.40;99.90;;;;;;5069070;28;20017;-58
2023/03/31 07:17:40;;;;;;;5.28;1.27;;;10.30;99.90;;;;;;5071299;28;20027;-58
2023/03/31 07:20:25;;;;;;;4.18;1.13;;;10.30;99.90;;;;;;5070719;28;20553;-57
2023/03/31 07:22:50;;;;;;;7.30;1.33;;;10.30;99.90;;;;;;5071196;28;20024;-57
2023/03/31 07:25:16;;;;;;;7.57;1.27;;;10.30;99.90;;;;;;5070724;28;20021;-57
2023/03/31 07:27:43;;;;;;;6.97;1.10;;;10.30;99.90;;;;;;5069167;28;20463;-57
2023/03/31 07:30:15;;;;;;;3.75;0.88;;;10.30;99.90;;;;;;5070685;28;20033;-57
2023/03/31 07:32:40;;;;;;;7.18;1.30;;;10.30;99.90;;;;;;5070245;28;20016;-57
2023/03/31 07:35:08;;;;;;;5.20;0.90;;;10.30;99.90;;;;;;5071252;28;20085;-57
2023/03/31 07:37:38;;;;;;;6.45;1.20;;;10.30;99.90;;;;;;5067587;28;20046;-57
2023/03/31 07:40:05;;;;;;;7.50;1.00;;;10.30;99.90;;;;;;5071200;28;20052;-57
2023/03/31 07:42:32;;;;;;;6.88;1.02;;;10.40;99.90;;;;;;5070629;28;20016;-57
2023/03/31 07:44:58;;;;;;;7.38;0.88;;;10.40;99.90;;;;;;5069615;28;20369;-58
2023/03/31 07:47:23;;;;;;;5.53;0.85;;;10.50;99.90;;;;;;5069812;28;20507;-57
2023/03/31 07:49:49;;;;;;;5.47;1.10;;;10.50;99.90;;;;;;5052655;28;20111;-57
2023/03/31 07:52:16;;;;;;;3.08;0.80;;;10.60;99.90;;;;;;5070493;28;20020;-57
2023/03/31 07:54:41;;;;;;;7.18;1.08;;;10.70;99.90;;;;;;5069172;28;20063;-57
2023/03/31 07:57:08;;;;;;;3.95;1.23;;;10.80;99.90;;;;;;5070760;28;20044;-57
2023/03/31 07:59:34;;;;;;;5.93;1.10;;;10.80;99.90;;;;;;5070766;28;20070;-57
2023/03/31 08:02:00;;;;;;;4.50;1.08;;;10.90;99.90;;;;;;5070365;28;20024;-57
2023/03/31 08:04:26;;;;;;;7.70;1.40;;;10.90;99.90;;;;;;5070673;28;20027;-57
2023/03/31 08:06:51;;;;;;;9.07;1.30;;;11.00;99.90;;;;;;5062940;28;20036;-57
2023/03/31 08:09:18;;;;;;;6.10;1.33;;;11.10;99.90;;;;;;5067101;28;20025;-57
2023/03/31 08:11:44;;;;;;;5.90;1.40;;;11.10;99.90;;;;;;5069349;28;20115;-57
2023/03/31 08:14:10;;;;;;;11.95;1.77;;;11.20;99.90;;;;;;5058935;28;20183;-57
2023/03/31 08:16:35;;;;;;;7.72;1.63;;;11.20;99.90;;;;;;5074322;28;20050;-58
2023/03/31 08:19:01;;;;;;;8.80;1.92;;;11.30;99.90;;;;;;5069918;28;20046;-58
2023/03/31 08:21:30;;;;;;;8.38;1.65;;;11.40;99.90;;;;;;5061878;28;20032;-57
2023/03/31 08:23:55;;;;;;;9.83;2.53;;;11.50;99.90;;;;;;5074976;28;20021;-58
2023/03/31 08:26:24;;;;;;;6.82;1.83;;;11.50;99.90;;;;;;5063464;28;20048;-58
2023/03/31 08:28:50;;;;;;;14.45;2.55;;;11.60;99.90;;;;;;5067691;28;20024;-57
2023/03/31 08:31:18;;;;;;;14.13;2.78;;;11.70;99.90;;;;;;5071740;28;20029;-58
2023/03/31 08:33:44;;;;;;;11.15;2.22;;;11.80;99.90;;;;;;5071766;28;20033;-57
2023/03/31 08:36:10;;;;;;;9.52;2.42;;;11.90;99.90;;;;;;5071413;28;20032;-58
2023/03/31 08:38:38;;;;;;;11.20;2.72;;;11.90;99.90;;;;;;5075959;28;20062;-58
2023/03/31 08:41:06;;;;;;;10.52;2.03;;;12.00;99.90;;;;;;5087448;28;20563;-57
2023/03/31 08:43:43;;;;;;;11.75;2.35;;;12.00;99.90;;;;;;5072979;28;20023;-57
2023/03/31 08:46:16;;;;;;;12.65;2.45;;;12.10;99.90;;;;;;5070804;28;20036;-58
2023/03/31 08:48:48;;;;;;;11.73;2.92;;;12.00;99.90;;;;;;5068213;28;20055;-58
2023/03/31 08:51:20;;;;;;;11.13;2.67;;;12.00;99.90;;;;;;5074488;28;20540;-58
2023/03/31 08:54:09;;;;;;;15.40;3.38;;;11.90;99.90;;;;;;5071612;28;20060;-58
2023/03/31 08:56:39;;;;;;;7.63;1.77;;;11.90;99.90;;;;;;5082197;28;20044;-58
2023/03/31 08:59:11;;;;;;;10.15;2.05;;;11.80;99.90;;;;;;5074055;28;20263;-59
2023/03/31 09:01:40;;;;;;;10.75;2.97;;;11.80;99.90;;;;;;5065093;28;20029;-58
2023/03/31 09:04:22;;;;;;;14.02;2.70;;;11.80;99.90;;;;;;5083176;28;20028;-58
2023/03/31 09:07:01;;;;;;;15.18;3.05;;;11.90;99.90;;;;;;5070645;28;20035;-58
2023/03/31 09:09:42;;;;;;;13.60;3.47;;;11.90;99.90;;;;;;5073672;28;20028;-58
2023/03/31 09:12:15;;;;;;;16.00;2.75;;;11.90;99.90;;;;;;5083384;28;20017;-58
2023/03/31 09:14:49;;;;;;;16.67;4.05;;;12.00;99.90;;;;;;5068662;28;20403;-58
2023/03/31 09:17:30;;;;;;;13.50;2.65;;;12.10;99.90;;;;;;5077311;28;20044;-58
2023/03/31 09:20:13;;;;;;;16.52;3.30;;;12.20;99.90;;;;;;5082716;28;20141;-58
2023/03/31 09:22:46;;;;;;;19.98;2.92;;;12.20;99.90;;;;;;5083707;28;20570;-58
2023/03/31 09:25:22;;;;;;;17.38;3.00;;;12.30;99.90;;;;;;5074047;28;20036;-58
2023/03/31 09:27:50;;;;;;;13.70;3.00;;;12.40;99.90;;;;;;5081858;28;20043;-58
2023/03/31 09:30:27;;;;;;;15.25;3.45;;;12.50;99.90;;;;;;5077806;28;20016;-58
2023/03/31 09:33:12;;;;;;;15.30;3.33;;;12.60;99.90;;;;;;5075964;28;20043;-58
2023/03/31 09:35:38;;;;;;;18.52;3.63;;;12.60;99.90;;;;;;5083865;28;20059;-58
2023/03/31 09:38:03;;;;;;;12.07;2.78;;;12.80;99.90;;;;;;5084843;28;20090;-58
2023/03/31 09:40:29;;;;;;;6.50;2.30;;;12.80;99.90;;;;;;5078661;28;20482;-58
2023/03/31 09:43:21;;;;;;;13.13;3.13;;;12.90;99.90;;;;;;5078244;28;20081;-58
2023/03/31 09:45:47;;;;;;;17.02;3.05;;;13.10;99.90;;;;;;5082173;28;20059;-58
2023/03/31 09:48:21;;;;;;;15.88;3.05;;;13.10;99.90;;;;;;5077005;28;20028;-58
2023/03/31 09:51:00;;;;;;;12.18;2.75;;;13.30;99.90;;;;;;5075427;28;20020;-58
2023/03/31 09:53:45;;;;;;;10.73;2.40;;;13.30;99.90;;;;;;5085851;28;20020;-58
2023/03/31 09:56:10;;;;;;;13.27;3.00;;;13.30;99.90;;;;;;5074763;28;20497;-58
2023/03/31 09:58:45;;;;;;;17.40;3.40;;;13.30;99.90;;;;;;5085605;28;20030;-58
2023/03/31 10:01:12;;;;;;;14.45;2.80;;;13.30;99.90;;;;;;5070895;28;20051;-58
2023/03/31 10:03:51;;;;;;;11.85;2.38;;;13.30;99.90;;;;;;5074958;28;20033;-58
2023/03/31 10:06:17;;;;;;;13.70;2.55;;;13.30;99.90;;;;;;5075734;28;20029;-58
2023/03/31 10:08:52;;;;;;;15.07;3.45;;;13.30;99.90;;;;;;5076316;28;20024;-59
2023/03/31 10:11:18;;;;;;;12.27;2.60;;;13.30;99.90;;;;;;5064706;28;20048;-59
2023/03/31 10:14:03;;;;;;;17.13;2.85;;;13.30;99.90;;;;;;5063956;28;20102;-58
2023/03/31 10:16:33;;;;;;;7.95;2.33;;;13.30;99.90;;;;;;5070863;28;20075;-58
2023/03/31 10:19:17;;;;;;;;;;;13.20;99.90;;;;;;5075727;28;20023;-58
2023/03/31 10:21:45;;;;;;;9.95;2.22;;;13.20;99.90;;;;;;5072609;28;20431;-58
2023/03/31 10:24:11;;;;;;;13.02;2.28;;;13.20;99.90;;;;;;5076812;28;20498;-58
2023/03/31 10:26:38;;;;;;;12.57;2.67;;;13.40;99.90;;;;;;5068606;28;20076;-58
2023/03/31 10:29:12;;;;;;;14.50;2.78;;;13.50;99.90;;;;;;5077621;28;20077;-58
2023/03/31 10:31:38;;;;;;;12.35;2.30;;;13.60;99.90;;;;;;5077420;28;20032;-58
2023/03/31 10:34:11;;;;;;;11.43;3.00;;;13.60;99.90;;;;;;5062291;28;20445;-58
2023/03/31 10:36:38;;;;;;;11.02;2.38;;;13.70;99.90;;;;;;5072384;28;20020;-58
2023/03/31 10:39:06;;;;;;;13.15;2.70;;;13.90;99.90;;;;;;5079964;28;20061;-58
2023/03/31 10:41:32;;;;;;;9.65;2.50;;;14.10;99.90;;;;;;5065125;28;20023;-59
2023/03/31 10:43:59;;;;;;;15.10;2.40;;;14.20;99.90;;;;;;5064976;28;20024;-59
2023/03/31 10:46:48;;;;;;;10.43;2.85;;;14.20;99.90;;;;;;5080487;28;20117;-58
2023/03/31 10:49:26;;;;;;;9.60;2.15;;;14.20;99.90;;;;;;5072496;28;20024;-58
2023/03/31 10:51:57;;;;;;;9.13;2.03;;;14.20;99.90;;;;;;5064732;28;20043;-58
2023/03/31 10:54:24;;;;;;;11.48;2.20;;;14.20;99.90;;;;;;5079728;28;20377;-58
2023/03/31 10:57:00;;;;;;;13.07;1.90;;;14.20;99.90;;;;;;5084515;28;20450;-58
2023/03/31 11:00:11;;;;;;;14.05;2.28;;;14.20;99.90;;;;;;5074771;28;20371;-58
2023/03/31 11:02:47;;;;;;;9.75;2.15;;;14.20;99.90;;;;;;5073973;28;20016;-58
2023/03/31 11:05:30;;;;;;;14.10;2.00;;;14.10;99.90;;;;;;5072744;28;20028;-58
2023/03/31 11:08:25;;;;;;;10.00;2.08;;;14.00;99.90;;;;;;5070546;28;20032;-58
2023/03/31 11:11:12;;;;;;;10.50;1.80;;;14.00;99.90;;;;;;5062094;28;20031;-58
2023/03/31 11:13:55;;;;;;;12.18;1.90;;;14.00;99.90;;;;;;5074558;28;20100;-58
2023/03/31 11:16:44;;;;;;;9.18;1.90;;;14.00;99.90;;;;;;5071306;28;20403;-57
2023/03/31 11:19:40;;;;;;;7.90;1.73;;;14.00;99.90;;;;;;5070135;28;20521;-57
2023/03/31 11:22:25;;;;;;;7.55;1.50;;;14.00;99.90;;;;;;5067006;28;20136;-57
2023/03/31 11:25:08;;;;;;;10.10;1.88;;;14.00;99.90;;;;;;5067776;28;20441;-57
2023/03/31 11:28:00;;;;;;;8.70;2.28;;;14.10;99.90;;;;;;5079864;28;20508;-58
2023/03/31 11:30:47;;;;;;;11.77;2.60;;;14.10;99.90;;;;;;5076958;28;20017;-57
2023/03/31 11:33:24;;;;;;;10.82;2.80;;;14.10;99.90;;;;;;5070346;28;20071;-58
2023/03/31 11:36:15;;;;;;;15.45;2.38;;;14.00;99.90;;;;;;5070618;28;20487;-58
2023/03/31 11:39:10;;;;;;;12.18;3.03;;;14.00;99.90;;;;;;5078271;28;20043;-58
2023/03/31 11:41:41;;;;;;;13.52;2.08;;;14.00;99.90;;;;;;5061183;28;20017;-58
2023/03/31 11:44:15;;;;;;;8.23;1.77;;;14.00;99.90;;;;;;5070222;28;20016;-58
2023/03/31 11:46:44;;;;;;;12.65;2.20;;;14.10;99.90;;;;;;5070677;28;20506;-58
2023/03/31 11:49:27;;;;;;;11.95;2.30;;;14.10;99.90;;;;;;5070196;28;20036;-58
2023/03/31 11:52:01;;;;;;;9.95;1.98;;;14.00;99.90;;;;;;5070770;28;20039;-58
2023/03/31 11:54:42;;;;;;;9.25;2.00;;;14.00;99.90;;;;;;5058836;28;20032;-58
2023/03/31 11:57:30;;;;;;;7.40;1.75;;;14.00;99.90;;;;;;5070326;28;20496;-58
2023/03/31 12:00:05;;;;;;;12.68;2.13;;;14.00;99.90;;;;;;5068365;28;20175;-58
2023/03/31 12:03:04;;;;;;;9.02;2.15;;;14.00;99.90;;;;;;5071017;28;20020;-58
2023/03/31 12:05:32;;;;;;;13.90;3.00;;;14.00;99.90;;;;;;5070269;28;20029;-58
2023/03/31 12:08:20;;;;;;;12.82;2.45;;;14.10;99.90;;;;;;5070727;28;20313;-58
2023/03/31 12:10:52;;;;;;;15.48;2.97;;;14.10;99.90;;;;;;5070183;28;20020;-58
2023/03/31 12:13:56;;;;;;;11.82;2.20;;;14.20;99.90;;;;;;5070511;28;20504;-58
2023/03/31 12:16:42;;;;;;;12.50;2.28;;;14.20;99.90;;;;;;5063503;28;20035;-58
2023/03/31 12:19:13;;;;;;;11.68;2.72;;;14.20;99.90;;;;;;5068264;28;20139;-58
2023/03/31 12:21:43;;;;;;;16.88;2.53;;;14.10;99.90;;;;;;5064874;28;20552;-58
2023/03/31 12:24:12;;;;;;;16.60;3.45;;;14.00;99.90;;;;;;5068164;28;20039;-58
2023/03/31 12:26:40;;;;;;;9.18;1.70;;;13.90;99.90;;;;;;5069339;28;20024;-58
2023/03/31 12:29:30;;;;;;;13.82;2.70;;;13.90;99.90;;;;;;5073214;28;20029;-58
2023/03/31 12:32:00;;;;;;;8.35;1.88;;;13.80;99.90;;;;;;5053206;28;20031;-57
2023/03/31 12:34:26;;;;;;;;;;;13.80;99.90;;;;;;5076395;28;20142;-58
2023/03/31 12:37:26;;;;;;;10.55;1.92;;;13.80;99.90;;;;;;5073740;28;19915;-58
2023/03/31 12:40:06;;;;;;;8.25;1.63;;;13.70;99.90;;;;;;5054528;28;20485;-58
2023/03/31 12:42:39;;;;;;;8.07;1.73;;;13.40;99.90;;;;;;5073832;28;20136;-58
2023/03/31 12:45:23;;;;;;;10.65;1.98;;;13.10;99.90;;;;;;5070830;28;20037;-58
2023/03/31 12:48:15;;;;;;;8.85;1.70;;;13.00;99.90;;;;;;5066489;28;20044;-58
2023/03/31 12:51:02;;;;;;;9.05;1.40;;;13.00;99.90;;;;;;5078057;28;20036;-58
2023/03/31 12:53:56;;;;;;;8.68;0.90;;;12.90;99.90;;;;;;5070270;28;20099;-58
2023/03/31 12:56:21;;;;;;;7.72;1.83;;;12.90;99.90;;;;;;5070143;28;20119;-58
2023/03/31 12:58:47;;;;;;;8.77;1.20;;;12.90;99.90;;;;;;5073552;28;20107;-58
2023/03/31 13:01:22;;;;;;;8.88;1.52;;;13.00;99.90;;;;;;5077239;28;20048;-58
2023/03/31 13:03:50;;;;;;;9.18;1.58;;;13.10;99.90;;;;;;5082772;28;20421;-58
2023/03/31 13:06:25;;;;;;;7.72;1.40;;;13.20;99.90;;;;;;5060158;28;20104;-58